<?xml version="1.0" encoding="UTF-8" standalone="no" ?>
<gpx xmlns="http://www.topografix.com/GPX/1/1" xmlns:xsi="http://www.w3.org/2001/XMLSchema-instance" xsi:schemaLocation="http://www.topografix.com/GPX/1/1 http://www.topografix.com/GPX/1/1/gpx.xsd" version="1.1" creator="VisuGPX - https://www.visugpx.com">
  <metadata>
    <name>Nantes_HopitauRenardsCensErdre-12km</name>
    <desc><![CDATA[D1 le 31/03/24 12.4km]]></desc>
  </metadata>
  <trk>
    <name><![CDATA[ChapelleErdre_HopitauCens_10.7km8321461]]></name>
    <extensions>
      <line xmlns="http://www.topografix.com/GPX/gpx_style/0/2">
        <color>0000FF</color>
        <width>4</width>
      </line>
    </extensions>
    <trkseg>
      <trkpt lat="47.27003" lon="-1.55313">
        <ele>26</ele>
        <time>2024-12-23T10:06:41Z</time>
      </trkpt>
      <trkpt lat="47.2698" lon="-1.55212">
        <ele>29</ele>
        <time>2024-12-23T10:08:17Z</time>
      </trkpt>
      <trkpt lat="47.26798" lon="-1.55281">
        <ele>25</ele>
        <time>2024-12-23T10:12:28Z</time>
      </trkpt>
      <trkpt lat="47.26766" lon="-1.55342">
        <ele>23</ele>
        <time>2024-12-23T10:13:38Z</time>
      </trkpt>
      <trkpt lat="47.26656" lon="-1.55276">
        <ele>22</ele>
        <time>2024-12-23T10:16:17Z</time>
      </trkpt>
      <trkpt lat="47.26576" lon="-1.55245">
        <ele>22</ele>
        <time>2024-12-23T10:18:07Z</time>
      </trkpt>
      <trkpt lat="47.26521" lon="-1.55342">
        <ele>21</ele>
        <time>2024-12-23T10:20:01Z</time>
      </trkpt>
      <trkpt lat="47.26334" lon="-1.55194">
        <ele>18</ele>
        <time>2024-12-23T10:24:45Z</time>
      </trkpt>
      <trkpt lat="47.26209" lon="-1.55347">
        <ele>11</ele>
        <time>2024-12-23T10:28:22Z</time>
      </trkpt>
      <trkpt lat="47.26058" lon="-1.55261">
        <ele>8</ele>
        <time>2024-12-23T10:31:58Z</time>
      </trkpt>
      <trkpt lat="47.25991" lon="-1.55628">
        <ele>9</ele>
        <time>2024-12-23T10:37:42Z</time>
      </trkpt>
      <trkpt lat="47.25953" lon="-1.55659">
        <ele>9</ele>
        <time>2024-12-23T10:38:40Z</time>
      </trkpt>
      <trkpt lat="47.25946" lon="-1.5574">
        <ele>10</ele>
        <time>2024-12-23T10:39:54Z</time>
      </trkpt>
      <trkpt lat="47.258" lon="-1.55751">
        <ele>14</ele>
        <time>2024-12-23T10:43:09Z</time>
      </trkpt>
      <trkpt lat="47.25575" lon="-1.56475">
        <ele>20</ele>
        <time>2024-12-23T10:55:10Z</time>
      </trkpt>
      <trkpt lat="47.25509" lon="-1.56368">
        <ele>24</ele>
        <time>2024-12-23T10:57:21Z</time>
      </trkpt>
      <trkpt lat="47.25395" lon="-1.56414">
        <ele>26</ele>
        <time>2024-12-23T10:59:59Z</time>
      </trkpt>
      <trkpt lat="47.25246" lon="-1.56373">
        <ele>26</ele>
        <time>2024-12-23T11:03:21Z</time>
      </trkpt>
      <trkpt lat="47.25201" lon="-1.56399">
        <ele>27</ele>
        <time>2024-12-23T11:04:25Z</time>
      </trkpt>
      <trkpt lat="47.25152" lon="-1.56633">
        <ele>35</ele>
        <time>2024-12-23T11:08:07Z</time>
      </trkpt>
      <trkpt lat="47.25017" lon="-1.56787">
        <ele>39</ele>
        <time>2024-12-23T11:11:55Z</time>
      </trkpt>
      <trkpt lat="47.24882" lon="-1.56827">
        <ele>34</ele>
        <time>2024-12-23T11:14:59Z</time>
      </trkpt>
      <trkpt lat="47.24816" lon="-1.56817">
        <ele>32</ele>
        <time>2024-12-23T11:16:27Z</time>
      </trkpt>
      <trkpt lat="47.2473" lon="-1.56771">
        <ele>28</ele>
        <time>2024-12-23T11:18:29Z</time>
      </trkpt>
      <trkpt lat="47.24688" lon="-1.57011">
        <ele>30</ele>
        <time>2024-12-23T11:22:14Z</time>
      </trkpt>
      <trkpt lat="47.24692" lon="-1.57185">
        <ele>31</ele>
        <time>2024-12-23T11:24:52Z</time>
      </trkpt>
      <trkpt lat="47.24757" lon="-1.57282">
        <ele>34</ele>
        <time>2024-12-23T11:26:55Z</time>
      </trkpt>
      <trkpt lat="47.24879" lon="-1.57282">
        <ele>36</ele>
        <time>2024-12-23T11:29:38Z</time>
      </trkpt>
      <trkpt lat="47.24848" lon="-1.5746">
        <ele>29</ele>
        <time>2024-12-23T11:32:24Z</time>
      </trkpt>
      <trkpt lat="47.24796" lon="-1.57516">
        <ele>24</ele>
        <time>2024-12-23T11:33:50Z</time>
      </trkpt>
      <trkpt lat="47.24806" lon="-1.57644">
        <ele>18</ele>
        <time>2024-12-23T11:35:47Z</time>
      </trkpt>
      <trkpt lat="47.24754" lon="-1.57634">
        <ele>15</ele>
        <time>2024-12-23T11:36:57Z</time>
      </trkpt>
      <trkpt lat="47.24664" lon="-1.57552">
        <ele>15</ele>
        <time>2024-12-23T11:39:18Z</time>
      </trkpt>
      <trkpt lat="47.2457" lon="-1.57486">
        <ele>17</ele>
        <time>2024-12-23T11:41:37Z</time>
      </trkpt>
      <trkpt lat="47.24529" lon="-1.57317">
        <ele>19</ele>
        <time>2024-12-23T11:44:20Z</time>
      </trkpt>
      <trkpt lat="47.24544" lon="-1.5723">
        <ele>20</ele>
        <time>2024-12-23T11:45:41Z</time>
      </trkpt>
      <trkpt lat="47.24529" lon="-1.57123">
        <ele>18</ele>
        <time>2024-12-23T11:47:20Z</time>
      </trkpt>
      <trkpt lat="47.24418" lon="-1.56965">
        <ele>13</ele>
        <time>2024-12-23T11:50:46Z</time>
      </trkpt>
      <trkpt lat="47.24338" lon="-1.5673">
        <ele>23</ele>
        <time>2024-12-23T11:54:44Z</time>
      </trkpt>
      <trkpt lat="47.24356" lon="-1.5648">
        <ele>22</ele>
        <time>2024-12-23T11:58:32Z</time>
      </trkpt>
      <trkpt lat="47.24366" lon="-1.56266">
        <ele>21</ele>
        <time>2024-12-23T12:01:46Z</time>
      </trkpt>
      <trkpt lat="47.24345" lon="-1.56159">
        <ele>17</ele>
        <time>2024-12-23T12:03:27Z</time>
      </trkpt>
      <trkpt lat="47.24265" lon="-1.56103">
        <ele>19</ele>
        <time>2024-12-23T12:05:26Z</time>
      </trkpt>
      <trkpt lat="47.24231" lon="-1.55679">
        <ele>12</ele>
        <time>2024-12-23T12:11:52Z</time>
      </trkpt>
      <trkpt lat="47.24349" lon="-1.55679">
        <ele>15</ele>
        <time>2024-12-23T12:14:30Z</time>
      </trkpt>
      <trkpt lat="47.24685" lon="-1.55899">
        <ele>21</ele>
        <time>2024-12-23T12:22:40Z</time>
      </trkpt>
      <trkpt lat="47.24841" lon="-1.55883">
        <ele>28</ele>
        <time>2024-12-23T12:26:09Z</time>
      </trkpt>
      <trkpt lat="47.24848" lon="-1.55817">
        <ele>29</ele>
        <time>2024-12-23T12:27:10Z</time>
      </trkpt>
      <trkpt lat="47.25294" lon="-1.55751">
        <ele>26</ele>
        <time>2024-12-23T12:37:08Z</time>
      </trkpt>
      <trkpt lat="47.25409" lon="-1.5646">
        <ele>26</ele>
        <time>2024-12-23T12:48:08Z</time>
      </trkpt>
      <trkpt lat="47.25493" lon="-1.56364">
        <ele>25</ele>
        <time>2024-12-23T12:50:30Z</time>
      </trkpt>
      <trkpt lat="47.25553" lon="-1.5648">
        <ele>21</ele>
        <time>2024-12-23T12:52:42Z</time>
      </trkpt>
      <trkpt lat="47.25711" lon="-1.56126">
        <ele>15</ele>
        <time>2024-12-23T12:59:06Z</time>
      </trkpt>
      <trkpt lat="47.25812" lon="-1.55768">
        <ele>12</ele>
        <time>2024-12-23T13:04:57Z</time>
      </trkpt>
      <trkpt lat="47.25941" lon="-1.55761">
        <ele>10</ele>
        <time>2024-12-23T13:07:49Z</time>
      </trkpt>
      <trkpt lat="47.25991" lon="-1.55618">
        <ele>9</ele>
        <time>2024-12-23T13:10:15Z</time>
      </trkpt>
      <trkpt lat="47.26089" lon="-1.55297">
        <ele>8</ele>
        <time>2024-12-23T13:15:34Z</time>
      </trkpt>
      <trkpt lat="47.26089" lon="-1.55297">
        <ele>8</ele>
        <time>2024-12-23T13:15:34Z</time>
      </trkpt>
      <trkpt lat="47.26196" lon="-1.55347">
        <ele>10</ele>
        <time>2024-12-23T13:18:03Z</time>
      </trkpt>
      <trkpt lat="47.2633" lon="-1.5518">
        <ele>19</ele>
        <time>2024-12-23T13:21:58Z</time>
      </trkpt>
      <trkpt lat="47.26519" lon="-1.55353">
        <ele>21</ele>
        <time>2024-12-23T13:26:55Z</time>
      </trkpt>
      <trkpt lat="47.26569" lon="-1.55248">
        <ele>22</ele>
        <time>2024-12-23T13:28:51Z</time>
      </trkpt>
      <trkpt lat="47.26648" lon="-1.55269">
        <ele>22</ele>
        <time>2024-12-23T13:30:38Z</time>
      </trkpt>
      <trkpt lat="47.26763" lon="-1.55357">
        <ele>23</ele>
        <time>2024-12-23T13:33:31Z</time>
      </trkpt>
      <trkpt lat="47.26806" lon="-1.5528">
        <ele>25</ele>
        <time>2024-12-23T13:35:01Z</time>
      </trkpt>
      <trkpt lat="47.26971" lon="-1.55217">
        <ele>29</ele>
        <time>2024-12-23T13:38:49Z</time>
      </trkpt>
      <trkpt lat="47.26982" lon="-1.55259">
        <ele>29</ele>
        <time>2024-12-23T13:39:29Z</time>
      </trkpt>
      <trkpt lat="47.27008" lon="-1.55331">
        <ele>25</ele>
        <time>2024-12-23T13:40:43Z</time>
      </trkpt>
    </trkseg>
  </trk>
</gpx>